Terminal Aerodrome Forecast
Issued by NWS Goodland, KS

Home | Current Version | Previous Version | Text Only | Print | Product List | Glossary On
Versions: 1 2 3 4 5 6 7 8 9 10 11 12 13 14 15 16 17
000
FTUS43 KGLD 302300
TAFGLD
TAF
KGLD 302327Z 3100/3124 VRB03KT P6SM FEW040 BKN100
     FM310700 29005KT P6SM SCT120 SCT200
     FM311800 26005KT P6SM SCT080=

USA.gov is the U.S. government's official web portal to all federal, state and local government web resources and services.